Time;durP1;ratioP1;P1;durP2;ratioP2;P2;SDS_P1;SDS_P2;PMS_P1;PMS_P2;Temp;Humidity;BMP_temperature;BMP_pressure;BME280_temperature;BME280_humidity;BME280_pressure;Samples;Min_cycle;Max_cycle;Signal;HPM_P1;HPM_P2
2021/11/16 00:03:39;;;;;;;16.50;12.50;;;;;;;17.50;58.24;102701.56;4792581;30;20035;-83
2021/11/16 00:06:48;;;;;;;17.30;12.30;;;;;;;17.51;58.38;102700.69;4792789;30;20030;-83
2021/11/16 00:09:43;;;;;;;15.32;12.00;;;;;;;17.49;58.35;102703.28;4807944;29;20070;-83
2021/11/16 00:22:25;;;;;;;17.05;12.43;;;;;;;17.46;58.21;102683.28;4814230;29;20077;-83
2021/11/16 00:28:14;;;;;;;17.13;13.05;;;;;;;17.46;58.24;102677.19;4814289;29;20056;-83
2021/11/16 00:31:09;;;;;;;17.38;12.68;;;;;;;17.47;58.13;102666.81;4798287;29;20040;-83
2021/11/16 00:37:47;;;;;;;17.02;12.80;;;;;;;17.46;58.30;102674.56;4813467;29;20103;-84
2021/11/16 00:43:52;;;;;;;17.65;12.95;;;;;;;17.47;58.13;102676.34;4966028;24;20116;-83
2021/11/16 00:46:39;;;;;;;16.95;12.25;;;;;;;17.45;58.04;102678.03;4815256;29;20043;-83
2021/11/16 00:52:52;;;;;;;17.58;12.30;;;;;;;17.43;57.84;102677.13;4777937;30;20058;-83
2021/11/16 01:06:04;;;;;;;17.67;12.75;;;;;;;17.42;57.99;102676.25;4777280;30;20074;-84
2021/11/16 01:12:16;;;;;;;18.95;12.65;;;;;;;17.42;57.63;102681.47;4777636;30;20135;-83
2021/11/16 01:18:34;;;;;;;19.10;12.25;;;;;;;17.41;57.73;102673.63;4773210;30;20118;-83
2021/11/16 01:21:00;;;;;;;16.00;12.52;;;;;;;17.42;57.94;102670.16;4808440;29;20186;-83
2021/11/16 01:43:23;;;;;;;16.20;12.13;;;;;;;17.39;57.71;102663.16;4727870;30;20036;-82
2021/11/16 01:46:05;;;;;;;16.90;12.80;;;;;;;17.38;57.62;102663.16;4774189;30;20100;-81
2021/11/16 01:52:38;;;;;;;17.23;12.80;;;;;;;17.38;57.66;102652.75;5255690;24;20066;-84
2021/11/16 01:58:41;;;;;;;15.48;12.20;;;;;;;17.37;57.90;102640.56;4841524;29;20058;-81
2021/11/16 02:05:14;;;;;;;16.67;12.95;;;;;;;17.37;57.47;102637.97;4849799;29;20506;-83
2021/11/16 02:11:47;;;;;;;15.60;11.75;;;;;;;17.36;57.37;102623.22;4849876;29;20029;-83
2021/11/16 02:14:26;;;;;;;17.17;12.48;;;;;;;17.36;57.46;102626.69;4848414;29;20030;-83
2021/11/16 02:32:36;;;;;;;17.15;12.75;;;;;;;17.35;57.55;102609.28;3043027;27;20086;-83
2021/11/16 02:38:33;;;;;;;16.88;13.15;;;;;;;17.33;57.55;102613.59;4848282;29;20122;-80
2021/11/16 02:44:32;;;;;;;16.13;12.68;;;;;;;17.33;57.36;102602.31;4849169;29;20050;-84
2021/11/16 03:07:00;;;;;;;15.82;12.32;;;;;;;17.32;57.52;102605.78;5136664;24;20058;-83
2021/11/16 03:25:18;;;;;;;18.02;13.00;;;;;;;17.29;57.29;102614.41;4828933;29;20088;-83
2021/11/16 03:45:55;;;;;;;17.75;13.10;;;;;;;17.28;57.48;102616.09;4915302;24;20085;-83
2021/11/16 04:04:19;;;;;;;18.30;13.68;;;;;;;17.27;57.34;102619.56;4806916;29;20043;-84
2021/11/16 04:22:48;;;;;;;17.48;13.20;;;;;;;17.24;57.64;102624.69;4792688;29;20045;-84
2021/11/16 04:25:39;;;;;;;16.67;13.02;;;;;;;17.25;57.37;102621.25;4770287;29;20078;-84
2021/11/16 04:31:57;;;;;;;17.33;13.32;;;;;;;17.25;57.62;102625.59;4757001;30;20544;-84
2021/11/16 04:44:52;;;;;;;16.13;13.35;;;;;;;17.21;57.23;102606.44;4730671;30;20090;-83
2021/11/16 05:16:32;;;;;;;18.83;14.30;;;;;;;17.20;57.24;102593.38;4740918;30;20064;-85
2021/11/16 06:23:47;;;;;;;20.70;15.13;;;;;;;17.26;57.55;102560.56;5059644;24;20062;-82
2021/11/16 06:26:27;;;;;;;27.40;16.10;;;;;;;17.28;57.23;102558.84;4813969;29;20034;-82
2021/11/16 06:28:54;;;;;;;23.10;16.00;;;;;;;17.33;56.88;102561.53;4812968;29;20039;-82
2021/11/16 06:31:26;;;;;;;20.67;15.73;;;;;;;17.33;57.00;102560.69;4813081;29;20125;-85
2021/11/16 06:34:16;;;;;;;21.98;15.70;;;;;;;17.34;56.78;102559.84;4824511;29;20134;-84
2021/11/16 06:49:40;;;;;;;22.08;15.98;;;;;;;17.34;56.86;102546.84;4903643;24;20062;-81
2021/11/16 06:58:34;;;;;;;24.10;16.10;;;;;;;17.34;56.79;102562.44;4940149;24;20091;-83
2021/11/16 07:40:26;;;;;;;21.90;16.40;;;;;;;17.33;56.81;102548.53;4871356;24;20071;-84
2021/11/16 07:50:28;;;;;;;19.20;15.35;;;;;;;17.33;56.73;102561.53;4809864;30;20073;-86
2021/11/16 07:53:34;;;;;;;19.92;16.27;;;;;;;17.33;56.68;102568.47;4809729;29;20099;-86
2021/11/16 07:57:01;;;;;;;20.43;16.60;;;;;;;17.33;56.66;102566.75;4809438;30;20082;-85
2021/11/16 10:18:25;;;;;;;19.85;15.77;;;;;;;17.25;55.47;102503.31;5310052;24;20047;-84
2021/11/16 13:31:06;;;;;;;18.60;14.90;;;;;;;17.10;54.41;102315.75;4262021;24;20400;-83
2021/11/16 13:33:48;;;;;;;17.80;14.23;;;;;;;17.09;54.54;102312.25;4825902;29;20392;-80
2021/11/16 13:36:18;;;;;;;17.90;14.82;;;;;;;17.08;54.54;102297.50;4829163;29;20026;-79
2021/11/16 13:39:13;;;;;;;17.35;14.02;;;;;;;17.09;54.38;102301.84;4831002;29;20059;-80
2021/11/16 13:41:50;;;;;;;20.23;15.23;;;;;;;17.10;54.37;102293.22;4831126;29;20022;-81
2021/11/16 13:44:34;;;;;;;16.48;13.88;;;;;;;17.10;54.24;102300.13;4825725;29;20034;-82
2021/11/16 13:46:59;;;;;;;18.98;15.07;;;;;;;17.09;54.26;102301.84;4825402;29;20037;-83
2021/11/16 13:49:39;;;;;;;18.67;14.70;;;;;;;17.07;54.30;102293.13;4825376;29;20392;-79
2021/11/16 13:52:07;;;;;;;19.40;14.75;;;;;;;17.08;54.46;102291.44;4825308;29;20041;-79
2021/11/16 13:54:33;;;;;;;16.00;13.45;;;;;;;17.07;54.35;102295.75;4826359;29;20412;-78
2021/11/16 13:57:01;;;;;;;18.60;14.73;;;;;;;17.06;54.40;102291.41;4826623;29;20034;-80
2021/11/16 13:59:28;;;;;;;19.15;14.68;;;;;;;17.06;54.51;102294.88;4825056;29;20033;-79
2021/11/16 14:01:55;;;;;;;20.67;14.90;;;;;;;17.05;54.43;102300.06;4794772;29;20027;-80
2021/11/16 14:04:21;;;;;;;20.08;14.82;;;;;;;17.05;54.17;102300.94;4825160;29;20034;-80
2021/11/16 14:06:47;;;;;;;19.23;14.57;;;;;;;17.05;54.47;102292.28;4795071;29;20373;-78
2021/11/16 14:09:12;;;;;;;17.77;13.80;;;;;;;17.04;54.47;102288.78;4803168;29;20030;-78
2021/11/16 14:11:49;;;;;;;18.83;14.45;;;;;;;17.05;54.57;102297.47;4824854;29;20034;-78
2021/11/16 14:14:21;;;;;;;19.25;14.68;;;;;;;17.05;54.46;102292.28;4809884;29;20079;-79
2021/11/16 14:16:47;;;;;;;19.95;14.65;;;;;;;17.04;54.54;102288.78;4824646;29;20038;-79
2021/11/16 14:19:13;;;;;;;19.45;14.57;;;;;;;17.04;54.47;102293.97;4810038;29;20035;-79
2021/11/16 14:21:39;;;;;;;17.77;14.55;;;;;;;17.04;54.22;102285.31;4809659;29;20027;-80
2021/11/16 14:24:05;;;;;;;19.02;14.18;;;;;;;17.03;54.31;102281.84;4825985;29;20039;-79
2021/11/16 14:26:31;;;;;;;16.88;13.75;;;;;;;17.02;54.24;102282.66;4809561;29;20026;-81
2021/11/16 14:28:59;;;;;;;18.25;14.38;;;;;;;17.03;54.59;102275.75;4825749;29;20483;-79
2021/11/16 14:31:31;;;;;;;18.90;14.55;;;;;;;17.02;54.41;102285.25;4824243;29;20050;-80
2021/11/16 14:33:59;;;;;;;18.00;13.65;;;;;;;17.03;54.21;102280.97;4809525;29;20031;-81
2021/11/16 14:36:36;;;;;;;16.95;14.45;;;;;;;17.02;54.32;102279.19;4824533;29;20038;-80
2021/11/16 14:39:08;;;;;;;17.13;13.70;;;;;;;17.01;54.56;102273.13;4823695;29;20035;-78
2021/11/16 14:41:41;;;;;;;16.85;14.25;;;;;;;17.00;54.21;102279.16;4809199;29;20083;-79
2021/11/16 14:44:10;;;;;;;17.42;13.77;;;;;;;16.99;54.30;102274.81;4824274;29;20034;-81
2021/11/16 14:46:37;;;;;;;18.52;13.68;;;;;;;17.00;54.40;102276.56;4824165;29;20556;-79
2021/11/16 14:49:03;;;;;;;18.08;13.60;;;;;;;16.99;54.36;102268.75;4809418;29;20038;-81
2021/11/16 14:51:41;;;;;;;18.60;14.57;;;;;;;17.00;54.25;102267.91;4808999;29;20110;-79
2021/11/16 14:54:11;;;;;;;17.20;13.38;;;;;;;16.98;54.36;102273.06;4809045;29;20057;-79
2021/11/16 14:56:40;;;;;;;17.45;14.23;;;;;;;16.99;54.22;102279.16;4809101;29;20532;-80
2021/11/16 14:59:09;;;;;;;18.30;14.18;;;;;;;16.99;54.23;102273.97;4824256;29;20111;-79
2021/11/16 15:01:38;;;;;;;17.70;13.90;;;;;;;16.98;54.56;102269.59;4825332;29;20058;-80
2021/11/16 15:04:06;;;;;;;17.45;13.85;;;;;;;16.97;54.19;102268.72;4825229;29;20083;-78
2021/11/16 15:06:33;;;;;;;16.50;13.90;;;;;;;16.98;54.29;102267.00;4824125;29;20031;-79
2021/11/16 15:09:04;;;;;;;16.70;13.30;;;;;;;16.97;54.36;102271.31;4793937;29;20456;-79
2021/11/16 15:11:31;;;;;;;18.67;13.77;;;;;;;16.98;54.49;102270.47;4824089;29;20376;-81
2021/11/16 15:14:04;;;;;;;18.63;13.73;;;;;;;16.96;54.34;102267.00;4793853;29;20038;-82
2021/11/16 15:16:29;;;;;;;16.58;13.45;;;;;;;16.97;54.30;102266.13;4825454;29;20042;-79
2021/11/16 15:19:16;;;;;;;15.95;13.25;;;;;;;16.95;54.26;102264.34;4793647;29;20039;-78
2021/11/16 15:21:56;;;;;;;17.13;13.55;;;;;;;16.96;54.54;102268.69;4824904;29;20022;-75
2021/11/16 15:24:26;;;;;;;17.05;13.52;;;;;;;16.97;54.65;102271.31;4823861;29;20418;-79
2021/11/16 15:26:51;;;;;;;17.27;13.18;;;;;;;17.02;54.39;102261.00;4809091;29;20086;-78
2021/11/16 15:29:17;;;;;;;15.43;12.98;;;;;;;17.05;54.41;102264.53;4793652;29;20038;-77
2021/11/16 15:31:47;;;;;;;16.67;13.30;;;;;;;17.06;54.53;102262.78;4823514;29;20110;-78
2021/11/16 15:34:14;;;;;;;16.98;12.50;;;;;;;17.07;54.60;102267.13;4823693;29;20036;-79
2021/11/16 15:36:41;;;;;;;17.67;13.43;;;;;;;17.09;54.54;102264.56;4793569;29;20399;-80
2021/11/16 15:39:08;;;;;;;16.38;13.15;;;;;;;17.11;54.64;102260.25;4808453;29;20026;-79
2021/11/16 15:41:41;;;;;;;16.00;12.93;;;;;;;17.11;54.44;102260.25;4823819;29;20035;-78
2021/11/16 15:57:38;;;;;;;15.57;12.40;;;;;;;17.14;54.60;102231.72;4830141;29;20082;-80
2021/11/16 16:00:19;;;;;;;16.65;13.07;;;;;;;17.14;54.76;102236.91;4808498;29;20429;-79
2021/11/16 16:02:52;;;;;;;14.07;11.70;;;;;;;17.15;54.50;102231.72;4823305;29;20078;-79
2021/11/16 16:05:24;;;;;;;13.90;11.37;;;;;;;17.16;54.38;102235.19;4823254;29;20034;-79
2021/11/16 16:07:58;;;;;;;14.18;11.63;;;;;;;17.16;54.35;102246.47;4810460;29;20023;-80
2021/11/16 16:10:39;;;;;;;17.00;12.18;;;;;;;17.16;54.34;102243.88;4828653;29;20030;-81
2021/11/16 16:13:10;;;;;;;14.48;11.27;;;;;;;17.17;54.60;102234.34;4823451;29;20037;-80
2021/11/16 16:15:39;;;;;;;14.65;11.23;;;;;;;17.18;54.45;102242.19;4808121;29;20083;-81
2021/11/16 16:18:13;;;;;;;15.43;11.27;;;;;;;17.18;54.72;102239.56;4823096;29;20042;-81
2021/11/16 16:20:40;;;;;;;13.50;10.98;;;;;;;17.19;54.49;102237.84;4823196;29;20030;-82
2021/11/16 16:23:05;;;;;;;14.55;10.93;;;;;;;17.19;54.74;102233.50;4824470;29;20499;-77
2021/11/16 16:25:32;;;;;;;15.15;11.18;;;;;;;17.23;54.45;102243.09;4824341;29;20113;-78
2021/11/16 16:27:57;;;;;;;16.20;11.32;;;;;;;17.21;54.60;102238.75;4808265;29;20117;-76
2021/11/16 16:30:23;;;;;;;13.85;11.00;;;;;;;17.21;54.70;102230.94;4807552;29;20141;-81
2021/11/16 16:32:49;;;;;;;14.57;10.95;;;;;;;17.22;54.79;102230.97;4777824;29;20031;-77
2021/11/16 16:35:14;;;;;;;15.05;10.55;;;;;;;17.21;54.70;102238.75;4823344;29;20377;-77
2021/11/16 16:37:40;;;;;;;14.77;11.20;;;;;;;17.18;54.79;102241.28;4807905;29;20062;-77
2021/11/16 16:40:06;;;;;;;15.05;10.10;;;;;;;17.15;54.97;102241.25;4792922;29;20498;-77
2021/11/16 16:42:33;;;;;;;14.20;10.82;;;;;;;17.12;54.87;102234.28;4807856;29;20094;-78
2021/11/16 16:44:58;;;;;;;15.18;11.85;;;;;;;17.12;55.09;102241.22;4807845;29;20030;-78
2021/11/16 16:47:24;;;;;;;16.90;11.45;;;;;;;17.10;54.93;102232.50;4792692;29;20061;-77
2021/11/16 16:49:50;;;;;;;12.63;10.35;;;;;;;17.08;54.91;102235.09;4792726;29;20042;-77
2021/11/16 16:52:16;;;;;;;14.35;10.95;;;;;;;17.08;55.19;102231.63;4807437;29;20476;-77
2021/11/16 16:54:43;;;;;;;16.90;11.07;;;;;;;17.09;55.14;102236.81;4807646;29;20038;-77
2021/11/16 16:57:09;;;;;;;12.90;9.98;;;;;;;17.09;55.05;102230.75;4792747;29;20030;-78
2021/11/16 16:59:35;;;;;;;13.95;10.50;;;;;;;17.07;55.14;102228.13;4822870;29;20027;-80
2021/11/16 17:02:06;;;;;;;17.45;10.48;;;;;;;17.06;54.87;102224.66;4793989;29;20022;-80
2021/11/16 17:04:35;;;;;;;13.18;10.25;;;;;;;17.08;55.06;102231.63;4811043;29;20026;-78
2021/11/16 17:07:01;;;;;;;12.05;10.05;;;;;;;17.08;55.27;102231.63;4796299;29;20034;-79
2021/11/16 17:09:27;;;;;;;16.15;10.25;;;;;;;17.07;55.07;102230.72;4811041;29;20117;-82
2021/11/16 17:11:52;;;;;;;14.10;10.43;;;;;;;17.08;55.21;102229.00;4795702;29;20469;-83
2021/11/16 17:14:18;;;;;;;11.75;9.90;;;;;;;17.07;55.11;102228.13;4810645;29;20037;-79
2021/11/16 17:16:45;;;;;;;13.70;10.10;;;;;;;17.06;55.28;102235.06;4827200;29;20037;-78
2021/11/16 17:19:12;;;;;;;13.15;10.00;;;;;;;17.06;55.06;102229.84;4810949;29;20041;-79
2021/11/16 17:21:38;;;;;;;12.65;10.35;;;;;;;17.08;55.42;102229.88;4795723;29;20034;-80
2021/11/16 17:24:06;;;;;;;12.15;9.90;;;;;;;17.07;55.47;102233.31;4825674;29;20373;-79
2021/11/16 17:26:32;;;;;;;11.55;9.25;;;;;;;17.08;55.21;102227.28;4825504;29;20481;-78
2021/11/16 17:28:58;;;;;;;13.70;10.10;;;;;;;17.07;55.35;102225.50;4825591;29;20049;-79
2021/11/16 17:31:27;;;;;;;10.75;9.65;;;;;;;17.09;55.30;102233.34;4825273;29;20062;-79
2021/11/16 17:33:53;;;;;;;13.32;9.73;;;;;;;17.09;55.29;102222.94;4825363;29;20361;-82
2021/11/16 17:36:19;;;;;;;11.65;9.32;;;;;;;17.07;55.41;102220.31;4795550;29;20057;-80
2021/11/16 17:38:44;;;;;;;11.75;9.50;;;;;;;17.08;55.18;102224.69;4795280;29;20503;-83
2021/11/16 17:41:10;;;;;;;11.40;9.52;;;;;;;17.08;55.50;102226.41;4825296;29;20075;-82
2021/11/16 17:43:37;;;;;;;11.02;8.95;;;;;;;17.09;55.30;102228.16;4810370;29;20034;-81
2021/11/16 17:46:04;;;;;;;12.75;9.60;;;;;;;17.09;55.41;102231.63;4810129;29;20125;-81
2021/11/16 17:48:30;;;;;;;11.73;9.23;;;;;;;17.09;55.53;102229.00;4810133;29;20030;-78
2021/11/16 17:50:56;;;;;;;11.18;9.48;;;;;;;17.09;55.35;102221.22;4795016;29;20057;-78
2021/11/16 17:53:22;;;;;;;11.82;9.02;;;;;;;17.10;55.31;102222.13;4795150;29;20571;-84
2021/11/16 17:55:47;;;;;;;10.35;8.57;;;;;;;17.09;55.65;102223.81;4810321;29;20156;-81
2021/11/16 17:58:13;;;;;;;13.68;9.10;;;;;;;17.10;55.60;102222.13;4810189;29;20034;-84
2021/11/16 18:00:39;;;;;;;11.55;9.18;;;;;;;17.10;55.53;102216.91;4810135;29;20031;-81
2021/11/16 18:03:06;;;;;;;11.85;9.45;;;;;;;17.10;55.73;102220.38;4794938;29;20065;-78
2021/11/16 18:08:22;;;;;;;11.13;8.82;;;;;;;17.11;55.63;102216.03;4826379;29;20113;-78
2021/11/16 18:10:53;;;;;;;17.30;9.65;;;;;;;17.12;55.75;102210.00;4795929;29;20039;-79
2021/11/16 18:13:19;;;;;;;15.73;10.13;;;;;;;17.12;55.91;102213.47;4826235;29;20034;-78
2021/11/16 18:15:45;;;;;;;17.52;10.93;;;;;;;17.11;56.19;102201.31;4794910;29;20042;-85
2021/11/16 18:18:11;;;;;;;23.25;11.65;;;;;;;17.11;56.13;102201.31;4824748;29;20037;-83
2021/11/16 18:20:39;;;;;;;21.25;11.23;;;;;;;17.13;56.00;102204.81;4794816;29;20425;-83
2021/11/16 18:23:08;;;;;;;21.00;11.95;;;;;;;17.14;56.42;102197.91;4825067;29;20509;-78
2021/11/16 18:25:35;;;;;;;23.80;12.52;;;;;;;17.12;56.70;102195.25;4809654;29;20030;-79
2021/11/16 18:28:01;;;;;;;27.33;13.10;;;;;;;17.11;56.70;102187.44;4809561;29;20038;-80
2021/11/16 18:30:34;;;;;;;27.52;12.43;;;;;;;17.12;57.00;102178.78;4795069;29;20104;-79
2021/11/16 18:33:01;;;;;;;22.92;12.43;;;;;;;17.12;57.34;102176.19;4798990;29;20137;-77
2021/11/16 18:35:27;;;;;;;24.42;13.07;;;;;;;17.10;57.20;102173.56;4809596;29;20034;-80
2021/11/16 18:37:55;;;;;;;23.50;13.02;;;;;;;17.10;57.42;102176.16;4824741;29;20069;-78
2021/11/16 18:40:29;;;;;;;24.02;12.70;;;;;;;17.10;57.26;102175.28;4809234;29;20064;-81
2021/11/16 18:45:20;;;;;;;23.85;12.52;;;;;;;17.11;57.57;102171.81;4827732;29;20049;-81
2021/11/16 18:47:50;;;;;;;21.30;12.93;;;;;;;17.10;57.52;102168.34;4809460;29;20030;-80
2021/11/16 18:50:19;;;;;;;20.30;12.57;;;;;;;17.10;57.33;102165.75;4809839;29;20114;-79
2021/11/16 18:52:46;;;;;;;19.27;12.05;;;;;;;17.10;57.42;102164.88;4824075;29;20034;-80
2021/11/16 18:55:17;;;;;;;20.05;12.50;;;;;;;17.10;57.46;102170.97;4794185;29;20085;-79
2021/11/16 18:57:43;;;;;;;18.75;12.10;;;;;;;17.11;57.49;102171.81;4808859;29;20113;-79
2021/11/16 19:00:09;;;;;;;17.50;11.80;;;;;;;17.12;57.38;102163.19;4808892;29;20175;-79
2021/11/16 19:02:35;;;;;;;19.77;11.95;;;;;;;17.13;57.35;102162.31;4793943;29;20030;-80
2021/11/16 19:05:01;;;;;;;19.15;11.70;;;;;;;17.12;57.43;102157.97;4793819;29;20040;-81
2021/11/16 19:07:27;;;;;;;17.55;12.02;;;;;;;17.12;57.32;102151.03;4808711;29;20030;-84
2021/11/16 19:09:52;;;;;;;16.52;11.75;;;;;;;17.13;57.46;102155.38;4778818;29;20394;-79
2021/11/16 19:12:18;;;;;;;18.17;11.00;;;;;;;17.13;57.43;102141.50;4778731;29;20038;-80
2021/11/16 19:14:47;;;;;;;19.88;12.15;;;;;;;17.14;57.32;102149.34;4824161;29;20029;-83
2021/11/16 19:17:18;;;;;;;19.45;11.48;;;;;;;17.15;57.50;102155.41;4825119;29;20022;-81
2021/11/16 19:19:44;;;;;;;17.85;11.52;;;;;;;17.14;57.57;102146.75;4808638;29;20063;-81
2021/11/16 19:22:12;;;;;;;17.33;10.80;;;;;;;17.14;57.47;102148.47;4793591;29;20510;-81
2021/11/16 19:24:46;;;;;;;16.50;11.77;;;;;;;17.14;57.48;102141.53;4807973;29;20030;-79
2021/11/16 19:27:16;;;;;;;17.15;11.48;;;;;;;17.16;57.60;102138.94;4823702;29;20027;-84
2021/11/16 19:29:46;;;;;;;17.52;11.38;;;;;;;17.15;57.56;102137.19;4779744;29;20068;-82
2021/11/16 19:32:14;;;;;;;16.23;11.63;;;;;;;17.16;57.60;102138.94;4808699;29;20421;-83
2021/11/16 19:34:41;;;;;;;17.20;11.32;;;;;;;17.15;57.50;102132.00;4823603;29;20041;-83
2021/11/16 19:37:22;;;;;;;14.88;10.63;;;;;;;17.15;57.48;102135.47;4793632;29;20034;-82
2021/11/16 19:39:57;;;;;;;14.93;10.90;;;;;;;17.16;57.52;102139.84;4795148;29;20034;-82
2021/11/16 19:42:23;;;;;;;14.95;10.82;;;;;;;17.16;57.39;102137.22;4794677;29;20031;-81
2021/11/16 19:44:51;;;;;;;15.10;10.73;;;;;;;17.17;57.55;102132.91;4793367;29;20536;-83
2021/11/16 19:47:16;;;;;;;15.18;10.43;;;;;;;17.16;57.45;102136.34;4808380;29;20061;-80
2021/11/16 19:49:43;;;;;;;14.20;10.40;;;;;;;17.16;57.27;102139.84;4823982;29;20082;-83
2021/11/16 19:52:08;;;;;;;16.15;10.82;;;;;;;17.17;57.33;102123.34;4808142;29;20183;-81
2021/11/16 19:54:38;;;;;;;12.98;10.00;;;;;;;17.17;57.46;102117.28;4823273;29;20079;-81
2021/11/16 19:57:09;;;;;;;13.68;10.00;;;;;;;17.16;57.38;102108.63;4793602;29;20034;-82
2021/11/16 19:59:36;;;;;;;15.48;10.18;;;;;;;17.18;57.34;102114.72;4824523;29;20031;-81
2021/11/16 20:02:03;;;;;;;15.57;10.60;;;;;;;17.17;57.58;102117.28;4823279;29;20079;-79
2021/11/16 20:04:31;;;;;;;12.48;9.65;;;;;;;17.18;57.29;102113.81;4823247;29;20117;-81
2021/11/16 20:06:58;;;;;;;13.05;10.27;;;;;;;17.19;57.40;102110.38;4808352;29;20111;-82
2021/11/16 20:09:23;;;;;;;14.18;10.25;;;;;;;17.18;57.38;102109.50;4807859;29;20026;-82
2021/11/16 20:11:50;;;;;;;12.68;10.05;;;;;;;17.18;57.26;102113.81;4808053;29;20079;-83
2021/11/16 20:14:16;;;;;;;15.68;9.90;;;;;;;17.18;57.36;102114.72;4807874;29;20109;-83
2021/11/16 20:16:41;;;;;;;13.02;9.93;;;;;;;17.20;57.46;102117.31;4807912;29;20129;-82
2021/11/16 20:19:07;;;;;;;14.63;10.70;;;;;;;17.18;57.45;102116.41;4808032;29;20030;-82
2021/11/16 20:21:33;;;;;;;14.10;10.43;;;;;;;17.18;57.22;102117.31;4792922;29;20088;-80
2021/11/16 20:24:00;;;;;;;13.05;9.95;;;;;;;17.19;57.42;102115.59;4807858;29;20090;-82
2021/11/16 20:26:26;;;;;;;12.73;9.38;;;;;;;17.18;57.46;102117.31;4807658;29;20395;-84
2021/11/16 20:28:56;;;;;;;11.23;9.65;;;;;;;17.19;57.21;102110.38;4807764;29;20031;-83
2021/11/16 20:31:39;;;;;;;14.77;10.52;;;;;;;17.19;57.28;102100.84;4793884;29;20050;-83
2021/11/16 20:34:08;;;;;;;13.57;9.90;;;;;;;17.19;57.21;102103.44;4823897;29;20058;-82
2021/11/16 20:36:36;;;;;;;12.65;9.07;;;;;;;17.19;57.36;102103.44;4794157;29;20043;-83
2021/11/16 20:42:34;;;;;;;12.80;10.15;;;;;;;17.19;57.34;102100.84;4827884;29;20030;-81
2021/11/16 20:44:45;;;;;;;12.93;9.35;;;;;;;17.19;57.19;102100.84;4823705;29;20040;-81
2021/11/16 21:00:37;;;;;;;11.27;8.93;;;;;;;17.20;57.09;102092.19;4827221;29;20046;-83
2021/11/16 21:03:03;;;;;;;12.05;9.20;;;;;;;17.22;57.21;102100.00;4815110;29;20446;-82
2021/11/16 21:05:29;;;;;;;12.35;8.93;;;;;;;17.22;57.29;102100.91;4814175;29;20030;-80
2021/11/16 21:07:55;;;;;;;11.45;8.70;;;;;;;17.22;57.49;102098.28;4813026;29;20030;-80
2021/11/16 21:10:20;;;;;;;12.98;9.00;;;;;;;17.22;57.41;102103.50;4827649;29;20027;-83
2021/11/16 21:12:46;;;;;;;11.15;8.80;;;;;;;17.22;57.37;102106.09;4828204;29;20551;-83
2021/11/16 21:15:11;;;;;;;10.38;8.63;;;;;;;17.23;57.24;102105.22;4799882;29;20031;-78
2021/11/16 21:17:37;;;;;;;11.15;8.88;;;;;;;17.22;57.15;102103.50;4813822;29;20468;-78
2021/11/16 21:20:04;;;;;;;10.93;9.20;;;;;;;17.24;57.20;102108.69;4811188;29;20037;-81
2021/11/16 21:22:30;;;;;;;11.75;9.27;;;;;;;17.22;57.59;102100.91;4826319;29;20079;-80
2021/11/16 21:24:56;;;;;;;11.52;9.07;;;;;;;17.24;57.32;102095.69;4825781;29;20030;-81
2021/11/16 21:27:22;;;;;;;11.35;8.48;;;;;;;17.25;57.29;102094.84;4825777;29;20029;-81
2021/11/16 21:29:47;;;;;;;10.48;8.77;;;;;;;17.24;57.55;102086.16;4795730;29;20034;-81
2021/11/16 21:32:13;;;;;;;10.82;8.38;;;;;;;17.24;57.25;102082.69;4810396;29;20046;-81
2021/11/16 21:34:39;;;;;;;11.50;8.88;;;;;;;17.25;57.45;102081.84;4795744;29;20034;-82
2021/11/16 21:37:05;;;;;;;10.27;8.50;;;;;;;17.25;57.61;102081.84;4810475;29;20117;-83
2021/11/16 21:39:33;;;;;;;11.77;8.75;;;;;;;17.26;57.68;102080.97;4810472;29;20065;-82
2021/11/16 21:41:58;;;;;;;10.25;8.60;;;;;;;17.26;57.45;102088.78;4810723;29;20037;-82
2021/11/16 21:44:26;;;;;;;10.20;8.27;;;;;;;17.25;57.35;102082.72;4825777;29;20038;-81
2021/11/16 21:46:52;;;;;;;11.38;9.13;;;;;;;17.26;57.57;102078.38;4795567;29;20050;-82
2021/11/16 21:49:21;;;;;;;10.95;8.80;;;;;;;17.26;57.63;102075.78;4795499;29;20042;-82
2021/11/16 21:51:48;;;;;;;11.52;8.88;;;;;;;17.26;57.66;102071.44;4811017;29;20039;-82
2021/11/16 21:54:13;;;;;;;9.85;8.02;;;;;;;17.26;57.59;102076.63;4825230;29;20026;-81
2021/11/16 21:56:40;;;;;;;9.90;8.32;;;;;;;17.28;57.77;102071.47;4810553;29;20105;-81
2021/11/16 21:59:08;;;;;;;10.15;8.57;;;;;;;17.27;57.50;102074.94;4825525;29;20026;-83
2021/11/16 22:01:34;;;;;;;12.48;9.20;;;;;;;17.27;57.65;102068.00;4810166;29;20026;-81
2021/11/16 22:04:00;;;;;;;10.18;8.20;;;;;;;17.28;57.45;102068.84;4810132;29;20042;-82
2021/11/16 22:06:27;;;;;;;10.32;8.32;;;;;;;17.29;57.58;102070.63;4795510;29;20078;-79
2021/11/16 22:09:09;;;;;;;9.70;8.60;;;;;;;17.28;57.48;102071.47;4810178;29;20034;-79
2021/11/16 22:14:04;;;;;;;10.48;8.40;;;;;;;17.27;57.48;102073.19;4825959;29;20037;-80
2021/11/16 22:16:31;;;;;;;9.70;8.30;;;;;;;17.27;57.61;102075.78;4794994;29;20042;-83
2021/11/16 22:18:59;;;;;;;11.23;8.68;;;;;;;17.26;57.70;102081.84;4794951;29;20030;-82
2021/11/16 22:21:25;;;;;;;9.68;8.35;;;;;;;17.27;57.59;102085.34;4809744;29;20022;-80
2021/11/16 22:23:51;;;;;;;11.48;8.65;;;;;;;17.27;57.64;102083.59;4824509;29;20065;-81
2021/11/16 22:26:17;;;;;;;10.15;8.77;;;;;;;17.27;57.60;102085.34;4794376;29;20064;-82
2021/11/16 22:28:43;;;;;;;10.32;8.43;;;;;;;17.25;57.63;102074.91;4794474;29;20030;-78
2021/11/16 22:31:09;;;;;;;10.82;8.95;;;;;;;17.26;57.46;102073.16;4814644;29;20118;-82
2021/11/16 22:33:55;;;;;;;11.65;9.07;;;;;;;17.25;57.47;102072.31;4776308;29;20034;-81
2021/11/16 22:36:22;;;;;;;10.82;9.00;;;;;;;17.25;57.59;102084.44;4778758;29;20035;-80
2021/11/16 22:38:48;;;;;;;10.57;8.90;;;;;;;17.25;57.57;102085.31;4791279;29;20118;-79
2021/11/16 22:41:18;;;;;;;11.23;9.07;;;;;;;17.25;57.67;102071.44;4791209;29;20507;-79
2021/11/16 22:43:44;;;;;;;12.75;9.13;;;;;;;17.25;57.71;102069.69;4791207;29;20030;-79
2021/11/16 22:46:10;;;;;;;11.13;9.00;;;;;;;17.26;57.63;102075.78;4806146;29;20031;-79
2021/11/16 22:48:36;;;;;;;13.70;9.15;;;;;;;17.26;57.70;102076.63;4791109;29;20465;-84
2021/11/16 22:51:03;;;;;;;14.02;9.93;;;;;;;17.26;57.84;102083.56;4790934;29;20039;-83
2021/11/16 22:53:29;;;;;;;11.07;8.77;;;;;;;17.25;57.78;102081.84;4791872;29;20086;-83
2021/11/16 22:55:54;;;;;;;12.02;9.60;;;;;;;17.25;57.71;102084.44;4790917;29;20034;-82
2021/11/16 22:58:19;;;;;;;12.57;9.30;;;;;;;17.25;57.76;102085.31;4775975;29;20037;-82
